Weather History for Sydney, NW

Change the Weather History Date:

Sunday, September 8, 2013

  Actual Average Record
Temperature  
Mean Temperature 64 °F -  
Max Temperature 66 °F 70 °F 77 °F (2001)
Min Temperature 62 °F 52 °F 46 °F (2010)
Degree Days  
Heating Degree Days 1    
Growing Degree Days 14 (Base 50)    
Moisture  
Dew Point 58 °F    
Average Humidity 78    
Maximum Humidity 88    
Minimum Humidity 67    
Precipitation  
Precipitation 0.00 in 0.08 in - ()
Sea Level Pressure  
Sea Level Pressure 30.24 in    
Wind  
Wind Speed 14 mph ()    
Max Wind Speed 24 mph    
Max Gust Speed -    
Visibility 7.0 miles    
Events Rain    
Averages and records for this station are not official NWS values.
T = Trace of Precipitation, MM = Missing Value Source: Averaged Metar Reports

Daily Weather History Graph

Daily Weather History Graph

Search for Another Location

Airport:

Trip Planner

Search our weather history database for the weather conditions in past years. The results will help you decide how hot, cold, wet, or windy it might be!

Date:

Astronomy

Sep. 08, 2013 Rise Set
Actual Time 6:04 AM EST 5:41 PM EST
Civil Twilight 5:39 AM EST 6:06 PM EST
Nautical Twilight 5:10 AM EST 6:35 PM EST
Astronomical Twilight 4:41 AM EST 7:04 PM EST
Moon 7:16 AM EST (9/8) 8:28 PM EST (9/8)
Length of Visible Light 12h 27m
Length of Day
11h 37m
Waxing Crescent, 7% of the Moon is Illuminated
Sep 8
Waxing Crescent
Sep 13
First Quarter
Sep 19
Full
Sep 27
Last Quarter
Oct 5
New

Hourly Weather History & Observations

Time (EST) Temp. Dew Point Humidity Pressure Visibility Wind Dir Wind Speed Gust Speed Precip Events Conditions
12:00 AM 65 °F 61 °F 84% 30.23 in 7 mi SSW 17.3 mph - -   Haze
12:00 AM 64.4 °F 60.8 °F 88% 30.21 in 6.2 mi SSW 17.3 mph - N/A   Mostly Cloudy
12:19 AM 64.4 °F 60.8 °F 88% 30.21 in 6.2 mi SSW 17.3 mph - N/A   Mostly Cloudy
12:30 AM 64.4 °F 60.8 °F 88% 30.21 in 6.2 mi SSW 18.4 mph - N/A   Mostly Cloudy
1:00 AM 63 °F 59 °F 84% 30.23 in - SSW 24.2 mph - -  
1:00 AM 62.6 °F 59.0 °F 88% 30.21 in 6.2 mi SSW 24.2 mph - N/A   Mostly Cloudy
1:30 AM 62.6 °F 59.0 °F 88% 30.21 in 6.2 mi SSW 21.9 mph - N/A   Light Drizzle
2:00 AM 63 °F 58 °F 77% 30.23 in - SSW 18.4 mph - -  
2:00 AM 62.6 °F 57.2 °F 82% 30.21 in 6.2 mi SSW 18.4 mph - N/A   Light Drizzle
2:30 AM 62.6 °F 57.2 °F 82% 30.21 in 6.2 mi SSW 19.6 mph - N/A   Mostly Cloudy
3:00 AM 64 °F 57 °F 71% 30.23 in 9 mi SSW 19.6 mph - -   Haze
3:00 AM 64.4 °F 57.2 °F 77% 30.21 in 6.2 mi South 19.6 mph - N/A   Mostly Cloudy
3:30 AM 64.4 °F 57.2 °F 77% 30.21 in 6.2 mi South 19.6 mph - N/A   Mostly Cloudy
4:00 AM 64 °F 56 °F 69% 30.23 in - South 21.9 mph - -  
4:00 AM 64.4 °F 57.2 °F 77% 30.21 in 6.2 mi South 21.9 mph - N/A   Overcast
4:30 AM 62.6 °F 57.2 °F 82% 30.24 in 6.2 mi South 20.7 mph - N/A   Overcast
5:00 AM 63 °F 57 °F 74% 30.25 in - South 19.6 mph - -  
5:00 AM 62.6 °F 57.2 °F 82% 30.24 in 6.2 mi South 19.6 mph - N/A   Mostly Cloudy
5:30 AM 62.6 °F 57.2 °F 82% 30.24 in 6.2 mi South 21.9 mph - N/A   Mostly Cloudy
6:00 AM 63 °F 57 °F 76% 30.26 in 11 mi South 17.3 mph - -   Haze
6:00 AM 62.6 °F 57.2 °F 82% 30.24 in 6.2 mi South 17.3 mph - N/A   Mostly Cloudy
6:30 AM 62.6 °F 57.2 °F 82% 30.27 in 6.2 mi South 18.4 mph - N/A   Mostly Cloudy
7:00 AM 63 °F 58 °F 78% 30.28 in - South 15.0 mph - -  
7:00 AM 62.6 °F 57.2 °F 82% 30.27 in 6.2 mi South 15.0 mph - N/A   Mostly Cloudy
7:30 AM 62.6 °F 57.2 °F 82% 30.27 in 6.2 mi South 15.0 mph - N/A Rain Light Rain Showers
8:00 AM 63 °F 58 °F 77% 30.30 in - South 12.7 mph - -  
8:00 AM 62.6 °F 57.2 °F 82% 30.27 in 6.2 mi South 12.7 mph - N/A   Mostly Cloudy
8:30 AM 62.6 °F 57.2 °F 82% 30.30 in 6.2 mi South 12.7 mph - N/A   Mostly Cloudy
9:00 AM 63 °F 57 °F 75% 30.31 in 12 mi South 10.4 mph - -   Haze
9:00 AM 62.6 °F 57.2 °F 82% 30.30 in 6.2 mi South 10.4 mph - N/A   Mostly Cloudy
9:31 AM 62.6 °F 57.2 °F 82% 30.30 in 6.2 mi South 9.2 mph - N/A   Mostly Cloudy
10:00 AM 64 °F 57 °F 71% 30.30 in - South 9.2 mph - -  
10:00 AM 64.4 °F 57.2 °F 77% 30.27 in 6.2 mi South 9.2 mph - N/A   Mostly Cloudy
10:30 AM 64.4 °F 57.2 °F 77% 30.27 in 6.2 mi South 9.2 mph - N/A   Mostly Cloudy
11:00 AM 65 °F 57 °F 68% 30.28 in - South 9.2 mph - -  
11:00 AM 64.4 °F 57.2 °F 77% 30.27 in 6.2 mi South 9.2 mph - N/A   Mostly Cloudy
11:30 AM 64.4 °F 57.2 °F 77% 30.27 in 6.2 mi South 10.4 mph - N/A   Mostly Cloudy
12:00 PM 64 °F 57 °F 71% 30.27 in 16 mi South 9.2 mph - -   Partly Cloudy
12:00 PM 64.4 °F 57.2 °F 77% 30.27 in 6.2 mi South 9.2 mph - N/A   Mostly Cloudy
12:30 PM 64.4 °F 57.2 °F 77% 30.24 in 6.2 mi South 8.1 mph - N/A   Mostly Cloudy
1:00 PM 65 °F 57 °F 67% 30.24 in - SSE 9.2 mph - -  
1:00 PM 66.2 °F 57.2 °F 73% 30.24 in 6.2 mi SSE 9.2 mph - N/A   Mostly Cloudy
1:30 PM 64.4 °F 57.2 °F 77% 30.21 in 6.2 mi South 9.2 mph - N/A   Mostly Cloudy
2:00 PM 65 °F 57 °F 68% 30.22 in - South 10.4 mph - -  
2:00 PM 64.4 °F 57.2 °F 77% 30.21 in 6.2 mi South 10.4 mph - N/A   Mostly Cloudy
2:30 PM 66.2 °F 57.2 °F 73% 30.21 in 6.2 mi South 11.5 mph - N/A   Mostly Cloudy
3:00 PM 65 °F 57 °F 68% 30.22 in 16 mi SSE 11.5 mph - -   Mostly Cloudy
3:00 PM 64.4 °F 57.2 °F 77% 30.21 in 6.2 mi SSE 11.5 mph - N/A   Mostly Cloudy
3:30 PM 64.4 °F 57.2 °F 77% 30.18 in 6.2 mi SE 8.1 mph - N/A   Mostly Cloudy
4:00 PM 66.2 °F 57.2 °F 73% 30.18 in 6.2 mi SE 8.1 mph - N/A   Mostly Cloudy
4:30 PM 64.4 °F 57.2 °F 77% 30.18 in 6.2 mi East 10.4 mph - N/A   Scattered Clouds
5:00 PM 65 °F 57 °F 68% 30.20 in - East 10.4 mph - -  
5:00 PM 64.4 °F 57.2 °F 77% 30.18 in 6.2 mi East 10.4 mph - N/A   Mostly Cloudy
5:30 PM 64.4 °F 59.0 °F 83% 30.18 in 6.2 mi East 9.2 mph - N/A   Mostly Cloudy
6:00 PM 65 °F 58 °F 73% 30.21 in 12 mi East 9.2 mph - -   Overcast
6:00 PM 64.4 °F 59.0 °F 83% 30.18 in 6.2 mi East 9.2 mph - N/A   Mostly Cloudy
6:30 PM 66.2 °F 59.0 °F 78% 30.21 in 6.2 mi NE 9.2 mph - N/A   Mostly Cloudy
7:00 PM 65 °F 59 °F 74% 30.23 in - ENE 11.5 mph - -  
7:00 PM 66.2 °F 59.0 °F 78% 30.21 in 6.2 mi ENE 11.5 mph - N/A   Light Drizzle
7:30 PM 66.2 °F 59.0 °F 78% 30.21 in 6.2 mi ENE 12.7 mph - N/A   Mostly Cloudy
8:00 PM 65 °F 58 °F 73% 30.24 in - East 10.4 mph - -  
8:00 PM 66.2 °F 59.0 °F 78% 30.24 in 6.2 mi East 10.4 mph - N/A   Mostly Cloudy
8:30 PM 66.2 °F 59.0 °F 78% 30.24 in 6.2 mi ENE 10.4 mph - N/A   Mostly Cloudy
9:00 PM 65 °F 59 °F 74% 30.25 in 12 mi ENE 10.4 mph - -   Overcast
9:00 PM 64.4 °F 59.0 °F 83% 30.24 in 6.2 mi ENE 10.4 mph - N/A   Mostly Cloudy
9:30 PM 64.4 °F 59.0 °F 83% 30.24 in 6.2 mi ENE 12.7 mph - N/A   Mostly Cloudy
10:00 PM 64 °F 59 °F 79% 30.26 in - NE 9.2 mph - -  
10:00 PM 64.4 °F 59.0 °F 83% 30.24 in 6.2 mi NE 9.2 mph - N/A   Scattered Clouds
10:30 PM 64.4 °F 59.0 °F 83% 30.24 in 6.2 mi ENE 9.2 mph - N/A   Mostly Cloudy
11:00 PM 65 °F 59 °F 75% 30.25 in - NNE 8.1 mph - -  
11:00 PM 64.4 °F 59.0 °F 83% 30.24 in 6.2 mi NNE 8.1 mph - N/A   Mostly Cloudy
11:30 PM 64.4 °F 59.0 °F 83% 30.24 in 6.2 mi NE 8.1 mph - N/A   Mostly Cloudy